Latest Weather Observations for Mount Crawford

IDS60901

Issued at 2:41 pm CST Thursday 2 July 2015 (issued every 10 minutes, with the page automatically refreshed every 10 minutes)

About weather observations | Map of Adelaide area stations | Latest observations for Adelaide area | Other Formats
Station Details ID: 023878 Name: MT CRAWFORD AWS Lat: -34.73 Lon: 138.93 Height: 525.0 m
Data from the previous 72 hours. | See also: Recent months at Mount Crawford
Date/Time
CST
Tmp

°C
App
Tmp
°C
Dew
Point
°C
Rel
Hum
%
Delta-T

°C
Wind Press
QNH
hPa
Press
MSL
hPa
Rain
since
9 am
mm
Dir
 
Spd
km/h
Gust
km/h
Spd
kts
Gust
kts
02/02:30pm 11.3 7.3 6.6 73 2.3 SW 17 26 9 14 1027.8 1028.4 0.0
02/02:00pm 10.9 7.1 7.4 79 1.7 SW 17 28 9 15 1027.6 1028.2 0.0
02/01:30pm 11.0 7.1 7.1 77 1.9 SW 17 28 9 15 1027.8 1028.4 0.0
02/01:00pm 11.4 8.8 7.9 79 1.8 SSW 11 17 6 9 1028.0 1028.6 0.0
02/12:30pm 10.5 7.3 8.4 87 1.0 SW 15 20 8 11 1028.2 1028.8 0.0
02/12:00pm 11.0 9.2 11.0 100 0.0 SSW 11 17 6 9 1028.2 1028.8 0.0
02/11:30am 9.2 7.3 9.2 100 0.0 W 9 13 5 7 1028.6 1029.2 0.0
02/11:00am 9.0 7.5 9.0 100 0.0 WSW 7 11 4 6 1028.7 1029.3 0.0
02/10:30am 8.5 6.8 8.5 100 0.0 WSW 7 9 4 5 1028.5 1029.1 0.0
02/10:00am 7.8 5.6 7.8 100 0.0 WSW 9 11 5 6 1028.2 1028.8 0.0
02/09:30am 7.4 5.5 7.4 100 0.0 W 7 11 4 6 1027.8 1028.4 0.0
02/09:00am 6.5 3.6 6.5 100 0.0 WSW 11 15 6 8 1027.8 1028.4 0.0
02/08:30am 6.4 3.1 6.4 100 0.0 WNW 13 19 7 10 1027.4 1027.9 0.0
02/08:00am 6.4 2.7 6.4 100 0.0 WNW 15 22 8 12 1027.0 1027.6 0.0
02/07:30am 6.1 2.7 6.1 100 0.0 WNW 13 15 7 8 1026.9 1027.5 0.0
02/07:00am 6.0 3.0 6.0 100 0.0 WNW 11 13 6 7 1026.6 1027.2 0.0
02/06:30am 5.9 2.1 5.9 100 0.0 W 15 19 8 10 1026.5 1027.1 0.0
02/06:00am 5.8 2.0 5.8 100 0.0 W 15 19 8 10 1026.2 1026.8 0.0
02/05:30am 5.7 1.5 5.7 100 0.0 WNW 17 24 9 13 1026.1 1026.7 0.0
02/05:00am 5.7 1.5 5.6 99 0.0 WNW 17 22 9 12 1026.2 1026.8 0.0
02/04:30am 5.8 1.6 5.7 99 0.0 WNW 17 22 9 12 1025.9 1026.5 0.0
02/04:00am 5.7 1.9 5.6 99 0.0 WNW 15 19 8 10 1026.0 1026.6 0.0
02/03:30am 5.9 2.1 5.8 99 0.0 NW 15 20 8 11 1026.1 1026.7 0.0
02/03:00am 6.0 2.2 5.9 99 0.0 NW 15 20 8 11 1026.1 1026.7 0.0
02/02:30am 5.9 2.1 5.9 100 0.0 WNW 15 22 8 12 1026.3 1026.9 0.0
02/02:00am 5.5 1.3 5.5 100 0.0 WNW 17 24 9 13 1026.2 1026.8 0.0
02/01:30am 5.4 0.8 5.4 100 0.0 WNW 19 26 10 14 1026.2 1026.8 0.0
02/01:00am 5.7 0.2 5.7 100 0.0 WNW 24 30 13 16 1026.0 1026.6 0.0
02/12:30am 5.6 0.4 5.6 100 0.0 WNW 22 30 12 16 1026.1 1026.7 0.0
02/12:00am 5.6 0.8 5.6 100 0.0 WNW 20 28 11 15 1026.5 1027.1 0.0
 
Date/Time
CST
Tmp

°C
App
Tmp
°C
Dew
Point
°C
Rel
Hum
%
Delta-T

°C
Wind Press
QNH
hPa
Press
MSL
hPa
Rain
since
9 am
mm
Dir
 
Spd
km/h
Gust
km/h
Spd
kts
Gust
kts
01/11:30pm 5.9 0.8 5.8 99 0.0 WNW 22 28 12 15 1026.9 1027.5 0.0
01/11:00pm 5.9 0.8 5.8 99 0.0 W 22 32 12 17 1026.9 1027.5 0.0
01/10:30pm 6.0 0.9 5.9 99 0.0 W 22 30 12 16 1026.9 1027.5 0.0
01/10:00pm 5.9 1.5 4.9 93 0.4 WNW 17 22 9 12 1026.9 1027.5 0.0
01/09:30pm 6.0 1.9 4.6 91 0.6 NW 15 20 8 11 1026.7 1027.3 0.0
01/09:00pm 6.4 1.8 3.7 83 1.2 NW 17 24 9 13 1026.8 1027.4 0.0
01/08:30pm 6.6 1.7 2.1 73 1.9 WNW 17 22 9 12 1026.8 1027.4 0.0
01/08:00pm 7.0 1.7 1.9 70 2.1 W 19 24 10 13 1026.6 1027.2 0.0
01/07:30pm 6.5 1.7 2.4 75 1.7 W 17 20 9 11 1026.7 1027.3 0.0
01/07:00pm 6.6 2.6 2.7 76 1.7 WSW 13 17 7 9 1026.5 1027.1 0.0
01/06:30pm 6.7 1.6 3.0 77 1.6 W 19 22 10 12 1026.5 1027.1 0.0
01/06:00pm 6.9 2.6 3.3 78 1.6 W 15 19 8 10 1026.1 1026.7 0.0
01/05:30pm 7.2 2.9 3.4 77 1.7 W 15 20 8 11 1026.0 1026.6 0.0
01/05:00pm 7.8 3.1 3.3 73 2.0 W 17 20 9 11 1026.0 1026.6 0.0
01/04:30pm 8.2 3.5 2.9 69 2.3 W 17 20 9 11 1026.0 1026.6 0.0
01/04:00pm 8.5 4.1 2.9 68 2.5 W 15 20 8 11 1025.9 1026.5 0.0
01/03:30pm 8.8 3.7 2.8 66 2.6 W 19 24 10 13 1026.0 1026.6 0.0
01/03:00pm 9.5 4.8 3.3 65 2.7 W 17 24 9 13 1025.9 1026.5 0.0
01/02:30pm 9.5 4.5 3.5 66 2.7 W 19 24 10 13 1025.8 1026.4 0.0
01/02:00pm 10.5 6.3 4.0 64 3.0 NW 15 20 8 11 1026.1 1026.7 0.0
01/01:30pm 10.1 6.2 3.6 64 2.9 WNW 13 20 7 11 1026.9 1027.5 0.0
01/01:00pm 9.7 5.4 3.2 64 2.9 W 15 22 8 12 1027.3 1027.8 0.0
01/12:30pm 9.9 5.8 4.1 67 2.6 NW 15 20 8 11 1027.7 1028.3 0.0
01/12:00pm 9.1 4.8 3.3 67 2.6 WNW 15 22 8 12 1028.3 1028.9 0.0
01/11:30am 8.7 4.6 4.3 74 2.0 NW 15 20 8 11 1028.7 1029.3 0.0
01/11:00am 8.2 4.0 4.0 75 1.9 W 15 19 8 10 1029.1 1029.8 0.0
01/10:30am 7.8 3.2 3.7 75 1.8 WNW 17 20 9 11 1029.3 1029.9 0.0
01/10:00am 7.5 3.8 4.6 82 1.3 WNW 13 19 7 10 1029.1 1029.8 0.0
01/09:30am 7.3 3.9 5.9 91 0.6 W 13 17 7 9 1029.0 1029.7 0.0
01/09:00am 7.4 4.8 5.9 90 0.7 NW 9 13 5 7 1028.8 1029.3 0.0
01/08:30am 6.8 3.8 5.9 94 0.4 NW 11 13 6 7 1028.9 1029.4 0.0
01/08:00am 6.1 3.1 6.0 99 0.0 W 11 13 6 7 1028.8 1029.3 0.0
01/07:30am 5.5 2.4 5.4 99 0.0 W 11 11 6 6 1028.8 1029.3 0.0
01/07:00am 5.5 2.0 5.4 99 0.0 W 13 13 7 7 1028.6 1029.1 0.0
01/06:30am 5.5 1.9 5.1 97 0.2 WSW 13 15 7 8 1028.5 1028.9 0.0
01/06:00am 5.5 1.8 4.6 94 0.4 WSW 13 15 7 8 1028.2 1028.6 0.0
01/05:30am 5.7 2.4 4.8 94 0.4 W 11 13 6 7 1028.2 1028.6 0.0
01/05:00am 5.7 2.4 4.8 94 0.4 W 11 13 6 7 1028.0 1028.4 0.0
01/04:30am 5.5 2.6 4.6 94 0.4 W 9 11 5 6 1027.8 1028.2 0.0
01/04:00am 5.6 2.2 4.2 91 0.6 W 11 13 6 7 1028.2 1028.6 0.0
01/03:30am 5.7 2.7 3.9 88 0.8 W 9 11 5 6 1028.1 1028.5 0.0
01/03:00am 5.8 2.8 4.0 88 0.8 W 9 9 5 5 1028.1 1028.5 0.0
01/02:30am 6.0 2.7 4.3 89 0.7 W 11 13 6 7 1028.1 1028.5 0.0
01/02:00am 6.3 2.9 4.1 86 1.0 W 11 15 6 8 1028.3 1028.7 0.0
01/01:30am 6.6 3.3 4.3 85 1.0 WSW 11 15 6 8 1028.4 1028.8 0.0
01/01:00am 7.1 3.6 3.3 77 1.7 WSW 11 11 6 6 1028.5 1028.9 0.0
01/12:30am 7.3 4.1 3.2 75 1.8 SW 9 11 5 6 1028.5 1028.9 0.0
01/12:00am 7.4 3.8 3.1 74 1.9 SW 11 11 6 6 1028.7 1029.2 0.0
 
Date/Time
CST
Tmp

°C
App
Tmp
°C
Dew
Point
°C
Rel
Hum
%
Delta-T

°C
Wind Press
QNH
hPa
Press
MSL
hPa
Rain
since
9 am
mm
Dir
 
Spd
km/h
Gust
km/h
Spd
kts
Gust
kts
30/11:30pm 7.2 4.7 4.5 83 1.2 SSE 7 11 4 6 1028.8 1029.3 0.0
30/11:00pm 7.3 4.6 5.4 88 0.9 SE 9 13 5 7 1029.1 1029.6 0.0
30/10:30pm 7.4 5.0 5.4 87 0.9 SSE 7 11 4 6 1029.3 1029.7 0.0
30/10:00pm 7.7 5.0 5.5 86 1.0 S 9 11 5 6 1029.4 1029.8 0.0
30/09:30pm 7.8 5.4 5.3 84 1.1 SSW 7 17 4 9 1029.7 1030.1 0.0
30/09:00pm 7.6 6.7 6.1 90 0.7 CALM 0 0 0 0 1029.7 1030.1 0.0
30/08:30pm 7.4 5.4 6.2 92 0.6 S 6 9 3 5 1029.8 1030.2 0.0
30/08:00pm 7.6 5.0 6.2 91 0.7 SSW 9 13 5 7 1029.5 1029.9 0.0
30/07:30pm 7.5 5.3 6.0 90 0.7 SW 7 9 4 5 1029.6 1030.0 0.0
30/07:00pm 7.6 5.3 5.7 88 0.9 SW 7 7 4 4 1029.3 1029.7 0.0
30/06:30pm 7.6 4.9 5.6 87 0.9 SSW 9 11 5 6 1028.8 1029.3 0.0
30/06:00pm 7.8 5.0 5.3 84 1.1 SW 9 13 5 7 1028.6 1029.1 0.0
30/05:30pm 7.8 4.9 4.9 82 1.3 SW 9 13 5 7 1028.3 1028.7 0.0
30/05:00pm 8.1 5.2 4.9 80 1.5 SW 9 9 5 5 1028.1 1028.5 0.0
30/04:30pm 8.4 5.5 4.4 76 1.8 WSW 9 13 5 7 1028.0 1028.4 0.0
30/04:00pm 8.7 6.1 4.3 74 2.0 SW 7 13 4 7 1027.9 1028.3 0.0
30/03:30pm 9.0 5.7 4.6 74 2.0 SW 11 17 6 9 1027.8 1028.2 0.0
30/03:00pm 8.8 5.1 4.4 74 2.0 WSW 13 19 7 10 1027.9 1028.3 0.0
30/02:30pm 8.9 5.5 3.9 71 2.2 WSW 11 19 6 10 1027.9 1028.3 0.0
30/02:00pm 9.5 6.5 3.9 68 2.5 WSW 9 13 5 7 1027.8 1028.2 0.0
30/01:30pm 9.4 6.3 3.4 66 2.7 SE 9 13 5 7 1028.0 1028.4 0.0
30/01:00pm 10.1 7.5 4.0 66 2.8 W 7 13 4 7 1028.2 1028.6 0.0
30/12:30pm 8.5 5.4 3.4 70 2.2 W 9 11 5 6 1028.6 1029.1 0.0
30/12:00pm 8.3 4.7 2.8 68 2.4 WSW 11 19 6 10 1029.1 1029.6 0.0
30/11:30am 8.5 4.4 2.3 65 2.7 WSW 13 19 7 10 1029.6 1030.0 0.0
30/11:00am 8.6 5.0 2.8 67 2.5 WSW 11 19 6 10 1029.8 1030.2 0.0
30/10:30am 8.7 5.5 3.1 68 2.4 WSW 9 13 5 7 1029.9 1030.3 0.0
30/10:00am 7.9 4.4 1.5 64 2.7 WSW 9 13 5 7 1029.8 1030.2 0.0
30/09:30am 7.4 4.3 1.3 65 2.5 W 7 9 4 5 1029.7 1030.1 0.0
30/09:00am 6.6 3.2 1.7 71 2.0 SW 9 13 5 7 1029.4 1029.8 0.0
30/08:30am 6.4 2.9 1.5 71 2.0 SW 9 13 5 7 1029.3 1029.7 0.0
30/08:00am 6.4 2.5 1.1 69 2.2 SW 11 13 6 7 1028.9 1029.4 0.0
30/07:30am 6.2 1.9 1.1 70 2.1 WSW 13 17 7 9 1028.8 1029.3 0.0
30/07:00am 6.3 2.0 1.0 69 2.2 SW 13 13 7 7 1028.4 1028.8 0.0
30/06:30am 6.3 2.4 1.0 69 2.2 SW 11 13 6 7 1028.2 1028.6 0.0
30/06:00am 6.4 3.3 1.3 70 2.1 WSW 7 11 4 6 1027.9 1028.3 0.0
30/05:30am 6.4 3.3 1.5 71 2.0 WSW 7 9 4 5 1027.9 1028.3 0.0
30/05:00am 6.5 3.0 1.4 70 2.1 WSW 9 9 5 5 1027.9 1028.3 0.0
30/04:30am 6.6 3.5 1.3 69 2.2 NW 7 9 4 5 1027.7 1028.1 0.0
30/04:00am 6.6 3.5 1.5 70 2.1 WNW 7 7 4 4 1027.6 1028.0 0.0
30/03:30am 6.8 3.9 1.3 68 2.3 NW 6 7 3 4 1027.8 1028.2 0.0
30/03:00am 6.8 3.8 1.1 67 2.3 NW 6 7 3 4 1027.8 1028.2 0.0
30/02:30am 7.0 3.9 1.3 67 2.4 NNW 7 9 4 5 1027.8 1028.2 0.0
30/02:00am 7.0 3.9 1.1 66 2.4 NNW 7 9 4 5 1028.0 1028.4 0.0
30/01:30am 7.0 3.5 1.5 68 2.3 NNW 9 11 5 6 1028.1 1028.5 0.0
30/01:00am 7.0 4.2 1.9 70 2.1 NW 6 7 3 4 1028.2 1028.6 0.0
30/12:30am 7.0 4.2 2.3 72 2.0 N 6 9 3 5 1028.5 1028.9 0.0
30/12:00am 7.4 5.7 1.7 67 2.4 CALM 0 0 0 0 1028.8 1029.3 0.0
 
Date/Time
CST
Tmp

°C
App
Tmp
°C
Dew
Point
°C
Rel
Hum
%
Delta-T

°C
Wind Press
QNH
hPa
Press
MSL
hPa
Rain
since
9 am
mm
Dir
 
Spd
km/h
Gust
km/h
Spd
kts
Gust
kts
29/11:30pm 7.4 4.6 1.9 68 2.3 N 6 6 3 3 1028.9 1029.4 0.0
29/11:00pm 7.8 4.8 1.9 66 2.5 NNE 7 11 4 6 1029.0 1029.5 0.0
29/10:30pm 7.4 4.4 2.1 69 2.2 ESE 7 7 4 4 1029.3 1029.7 0.0
29/10:00pm 7.4 4.4 2.1 69 2.3 ESE 7 9 4 5 1029.3 1029.7 0.0
29/09:30pm 7.7 4.3 1.8 66 2.5 ESE 9 15 5 8 1029.4 1029.8 0.0
29/09:00pm 8.0 4.1 1.4 63 2.8 E 11 15 6 8 1029.6 1030.0 0.0
29/08:30pm 7.5 4.1 2.0 68 2.3 E 9 9 5 5 1029.6 1030.0 0.0
29/08:00pm 7.8 4.4 1.6 65 2.6 E 9 11 5 6 1029.6 1030.0 0.0
29/07:30pm 7.6 4.6 1.9 67 2.4 E 7 9 4 5 1029.5 1029.9 0.0
29/07:00pm 7.6 4.3 2.7 71 2.1 E 9 11 5 6 1029.4 1029.8 0.0
29/06:30pm 7.7 4.4 2.4 69 2.3 ENE 9 13 5 7 1029.1 1029.6 0.0
29/06:00pm 7.7 4.4 2.6 70 2.2 ENE 9 11 5 6 1028.8 1029.3 0.0
29/05:30pm 7.8 4.5 2.5 69 2.3 E 9 13 5 7 1028.8 1029.3 0.0
29/05:00pm 7.9 4.8 3.4 73 2.0 ENE 9 11 5 6 1028.7 1029.2 0.0
29/04:30pm 8.3 5.7 3.4 71 2.1 ESE 6 7 3 4 1028.8 1029.3 0.0
29/04:00pm 8.5 5.2 2.5 66 2.6 ENE 9 11 5 6 1028.9 1029.4 0.0
29/03:30pm 8.8 5.9 2.4 64 2.8 ESE 7 11 4 6 1029.0 1029.5 0.0
29/03:00pm 9.0 6.2 3.0 66 2.6 E 7 13 4 7 1029.1 1029.6 0.0

Latest Capital City Observations: Canberra | Sydney | Melbourne | Brisbane | Adelaide | Perth | Hobart | Darwin

Other Formats:

Comma delimited format used in spreadsheet applications
http://www.bom.gov.au/fwo/IDS60901/IDS60901.94678.axf

JavaScript Object Notation format (JSON) in row-major order
http://www.bom.gov.au/fwo/IDS60901/IDS60901.94678.json